Time;durP1;ratioP1;P1;durP2;ratioP2;P2;SDS_P1;SDS_P2;PMS_P1;PMS_P2;Temp;Humidity;BMP_temperature;BMP_pressure;BME280_temperature;BME280_humidity;BME280_pressure;Samples;Min_cycle;Max_cycle;Signal;HPM_P1;HPM_P2
2022/11/11 00:02:20;;;;;;;6.50;1.85;;;19.40;47.20;;;;;;5036833;28;20565;-51
2022/11/11 00:04:51;;;;;;;3.45;1.35;;;19.40;47.20;;;;;;5028114;28;20227;-53
2022/11/11 00:07:23;;;;;;;5.90;1.67;;;19.50;47.30;;;;;;5029920;28;20206;-55
2022/11/11 00:09:54;;;;;;;7.05;2.00;;;19.50;47.30;;;;;;5030807;28;20215;-49
2022/11/11 00:12:25;;;;;;;5.70;1.98;;;19.60;47.40;;;;;;5030559;28;20200;-56
2022/11/11 00:14:56;;;;;;;4.60;1.90;;;19.60;47.40;;;;;;5030834;28;20652;-55
2022/11/11 00:25:52;;;;;;;7.00;2.30;;;19.70;47.60;;;;;;5030691;28;20215;-55
2022/11/11 00:28:23;;;;;;;5.10;1.98;;;19.80;47.70;;;;;;5029868;28;20196;-53
2022/11/11 00:31:02;;;;;;;6.53;1.98;;;19.80;47.70;;;;;;5030703;28;20216;-54
2022/11/11 00:33:33;;;;;;;6.65;2.05;;;19.80;47.70;;;;;;5029966;28;20570;-57
2022/11/11 00:36:02;;;;;;;5.65;1.80;;;19.80;47.70;;;;;;5030863;28;20196;-61
2022/11/11 00:38:47;;;;;;;4.47;1.95;;;19.90;47.80;;;;;;5029689;28;20277;-53
2022/11/11 00:41:19;;;;;;;7.68;2.42;;;19.90;47.80;;;;;;5029746;28;20199;-55
2022/11/11 00:43:50;;;;;;;6.43;1.85;;;19.90;47.80;;;;;;5009935;28;20228;-59
2022/11/11 00:51:53;;;;;;;6.15;1.75;;;20.00;47.80;;;;;;5015152;28;20199;-51
2022/11/11 00:54:26;;;;;;;5.55;1.90;;;20.00;47.80;;;;;;5029766;28;20192;-59
2022/11/11 00:56:57;;;;;;;7.00;1.73;;;20.10;47.90;;;;;;5029975;28;20192;-49
2022/11/11 00:59:28;;;;;;;6.47;1.60;;;20.10;47.90;;;;;;5030451;28;20208;-59
2022/11/11 01:01:58;;;;;;;6.32;1.77;;;20.10;48.50;;;;;;5030004;28;20195;-55
2022/11/11 01:04:29;;;;;;;4.75;1.75;;;20.20;48.00;;;;;;5034092;28;20239;-58
2022/11/11 01:07:00;;;;;;;8.25;1.98;;;20.10;47.90;;;;;;5036620;28;20195;-52
2022/11/11 01:09:32;;;;;;;7.75;1.75;;;20.10;47.90;;;;;;5033662;28;20230;-59
2022/11/11 01:12:03;;;;;;;6.20;1.77;;;20.20;48.00;;;;;;5033404;28;20188;-55
2022/11/11 01:14:34;;;;;;;5.85;1.73;;;20.20;48.00;;;;;;5033052;28;20223;-58
2022/11/11 01:17:08;;;;;;;8.20;2.20;;;20.20;47.90;;;;;;5033566;28;20197;-57
2022/11/11 01:19:39;;;;;;;5.75;2.00;;;20.20;48.00;;;;;;5032138;28;20215;-53
2022/11/11 01:22:09;;;;;;;6.10;1.95;;;20.30;48.00;;;;;;5027980;28;20197;-49
2022/11/11 01:24:42;;;;;;;7.60;1.85;;;20.30;48.00;;;;;;5020655;28;20228;-55
2022/11/11 01:27:13;;;;;;;7.40;2.13;;;20.30;48.00;;;;;;5033543;28;20196;-49
2022/11/11 01:29:43;;;;;;;7.20;1.90;;;20.30;48.00;;;;;;5032509;28;20598;-48
2022/11/11 01:32:14;;;;;;;6.45;1.98;;;20.30;48.00;;;;;;5033162;28;20196;-49
2022/11/11 01:34:45;;;;;;;6.43;1.48;;;20.30;48.00;;;;;;5032655;28;20231;-49
2022/11/11 01:37:16;;;;;;;5.65;1.60;;;20.30;48.00;;;;;;5033637;28;20200;-51
2022/11/11 01:39:49;;;;;;;6.50;1.63;;;20.30;48.00;;;;;;5033082;28;20274;-57
2022/11/11 01:42:20;;;;;;;10.98;2.00;;;20.40;48.00;;;;;;5033832;28;20417;-48
2022/11/11 01:44:51;;;;;;;6.55;1.75;;;20.40;48.00;;;;;;5033328;28;20223;-56
2022/11/11 01:49:17;;;;;;;9.57;1.95;;;20.40;47.90;;;;;;5032335;28;20227;-56
2022/11/11 01:50:12;;;;;;;8.07;2.15;;;20.40;47.90;;;;;;5044998;28;20440;-52
2022/11/11 01:52:46;;;;;;;8.15;2.13;;;20.50;47.90;;;;;;5045229;28;20204;-48
2022/11/11 01:55:21;;;;;;;7.07;2.05;;;20.50;48.00;;;;;;5033195;28;20215;-52
2022/11/11 01:57:55;;;;;;;8.15;2.13;;;20.50;48.00;;;;;;5032779;28;20565;-54
2022/11/11 02:00:26;;;;;;;8.32;2.30;;;20.50;48.00;;;;;;5032965;28;20215;-53
2022/11/11 02:03:00;;;;;;;8.30;2.15;;;20.50;48.00;;;;;;5032409;28;20188;-54
2022/11/11 02:05:47;;;;;;;9.93;2.00;;;20.50;48.00;;;;;;5033027;28;20204;-53
2022/11/11 02:08:31;;;;;;;6.15;1.77;;;20.50;48.00;;;;;;5031247;28;20200;-56
2022/11/11 02:11:07;;;;;;;8.93;2.20;;;20.50;48.00;;;;;;5032328;28;20220;-56
2022/11/11 02:16:28;;;;;;;6.20;2.15;;;20.50;48.00;;;;;;5033032;28;20212;-50
2022/11/11 02:18:59;;;;;;;9.02;2.00;;;20.50;48.00;;;;;;5032438;28;20204;-52
2022/11/11 02:21:35;;;;;;;6.40;1.85;;;20.50;48.00;;;;;;5032446;28;20648;-54
2022/11/11 02:24:12;;;;;;;6.28;1.90;;;20.60;48.00;;;;;;5032002;28;20226;-60
2022/11/11 02:26:44;;;;;;;7.70;2.45;;;20.60;48.10;;;;;;5032122;28;20207;-49
2022/11/11 02:29:18;;;;;;;6.88;2.50;;;20.60;48.10;;;;;;5032132;28;20223;-55
2022/11/11 02:31:49;;;;;;;7.78;2.20;;;20.60;48.10;;;;;;5032220;28;20202;-54
2022/11/11 02:34:19;;;;;;;6.35;2.17;;;20.60;48.10;;;;;;5032503;28;20192;-54
2022/11/11 02:36:50;;;;;;;7.95;2.40;;;20.60;48.20;;;;;;5031289;28;20206;-57
2022/11/11 02:39:23;;;;;;;6.85;2.22;;;20.60;48.20;;;;;;5030242;28;20215;-56
2022/11/11 02:41:59;;;;;;;8.18;2.13;;;20.60;48.20;;;;;;5031441;28;20197;-59
2022/11/11 02:44:29;;;;;;;7.80;2.00;;;20.60;48.30;;;;;;5031074;28;20298;-56
2022/11/11 02:47:00;;;;;;;4.85;2.00;;;20.60;48.30;;;;;;5031295;28;20200;-59
2022/11/11 02:49:31;;;;;;;5.32;2.22;;;20.60;48.20;;;;;;5031083;28;20224;-58
2022/11/11 02:52:01;;;;;;;7.97;2.20;;;20.60;48.30;;;;;;5031143;28;20601;-56
2022/11/11 02:54:34;;;;;;;6.95;2.20;;;20.70;48.30;;;;;;5031640;28;20219;-56
2022/11/11 02:57:08;;;;;;;8.18;2.22;;;20.70;48.30;;;;;;5031498;28;20199;-58
2022/11/11 02:59:40;;;;;;;7.40;2.28;;;20.70;48.20;;;;;;5031308;28;20220;-56
2022/11/11 03:02:11;;;;;;;6.63;2.03;;;20.70;48.90;;;;;;5032223;28;20193;-60
2022/11/11 03:04:41;;;;;;;5.15;1.80;;;20.70;48.20;;;;;;5030526;28;20224;-57
2022/11/11 03:07:12;;;;;;;7.15;2.25;;;20.70;48.30;;;;;;5033945;28;20202;-61
2022/11/11 03:09:45;;;;;;;5.35;2.10;;;20.70;48.30;;;;;;5030399;28;20571;-56
2022/11/11 03:12:15;;;;;;;6.95;1.80;;;20.70;48.40;;;;;;5030959;28;20185;-56
2022/11/11 03:14:46;;;;;;;5.75;1.98;;;20.70;48.40;;;;;;5030414;28;20367;-62
2022/11/11 03:23:03;;;;;;;5.65;1.73;;;20.80;48.30;;;;;;5031424;28;20612;-61
2022/11/11 03:25:40;;;;;;;6.20;2.00;;;20.80;48.20;;;;;;5029937;28;20716;-62
2022/11/11 03:28:12;;;;;;;5.07;1.65;;;20.80;48.20;;;;;;5031186;28;20198;-59
2022/11/11 03:30:44;;;;;;;4.15;2.00;;;20.90;48.20;;;;;;5030904;28;20223;-62
2022/11/11 03:33:15;;;;;;;5.78;2.13;;;20.90;48.10;;;;;;5031424;28;20563;-62
2022/11/11 03:35:48;;;;;;;6.82;2.00;;;20.90;48.10;;;;;;5031642;28;20363;-61
2022/11/11 03:38:23;;;;;;;8.02;2.28;;;20.90;48.10;;;;;;5031334;28;20211;-62
2022/11/11 03:40:57;;;;;;;5.05;1.70;;;20.90;48.10;;;;;;5030989;28;20303;-60
2022/11/11 03:43:29;;;;;;;5.78;2.20;;;21.00;48.10;;;;;;5031182;28;20199;-62
2022/11/11 03:46:01;;;;;;;7.72;1.77;;;21.00;48.10;;;;;;5031809;28;20211;-53
2022/11/11 03:48:33;;;;;;;6.45;1.98;;;21.00;48.10;;;;;;5031441;28;20662;-61
2022/11/11 03:51:04;;;;;;;7.25;2.10;;;21.00;48.20;;;;;;5030984;28;20228;-59
2022/11/11 03:53:34;;;;;;;7.30;1.90;;;21.00;48.10;;;;;;5031430;28;20584;-55
2022/11/11 03:56:07;;;;;;;7.63;2.00;;;21.00;48.10;;;;;;5031938;28;20197;-61
2022/11/11 03:58:38;;;;;;;7.85;1.88;;;21.00;48.10;;;;;;5031890;28;20192;-54
2022/11/11 04:10:21;;;;;;;9.10;2.33;;;21.00;48.10;;;;;;5027304;28;20552;-60
2022/11/11 04:12:30;;;;;;;9.93;2.65;;;21.10;48.10;;;;;;5031499;28;20191;-59
2022/11/11 04:17:48;;;;;;;12.65;2.63;;;21.10;48.10;;;;;;5030934;28;20195;-58
2022/11/11 04:23:05;;;;;;;10.52;3.20;;;21.10;48.20;;;;;;5031294;28;20187;-62
2022/11/11 04:25:49;;;;;;;10.13;3.03;;;21.00;48.20;;;;;;5031034;28;20231;-59
2022/11/11 04:31:20;;;;;;;10.52;2.92;;;21.00;48.20;;;;;;4988694;28;20276;-57
2022/11/11 04:33:49;;;;;;;9.18;3.25;;;21.00;48.30;;;;;;5020891;28;20575;-56
2022/11/11 04:36:20;;;;;;;12.23;3.53;;;21.00;48.30;;;;;;5030713;28;20247;-51
2022/11/11 04:41:37;;;;;;;11.68;2.60;;;21.00;48.30;;;;;;5035142;28;20698;-61
2022/11/11 04:46:53;;;;;;;9.35;3.05;;;21.00;48.20;;;;;;5004053;28;20569;-48
2022/11/11 04:49:24;;;;;;;10.73;2.63;;;21.00;48.20;;;;;;5037897;28;20216;-55
2022/11/11 04:57:44;;;;;;;11.45;2.65;;;21.00;48.30;;;;;;4970306;28;20237;-53
2022/11/11 05:00:18;;;;;;;5.43;2.25;;;21.00;48.30;;;;;;5001266;28;20306;-54
2022/11/11 05:11:06;;;;;;;8.93;2.70;;;21.00;48.30;;;;;;5033763;28;20726;-53
2022/11/11 05:22:10;;;;;;;7.32;2.50;;;21.00;48.20;;;;;;5033695;28;20280;-57
2022/11/11 05:27:27;;;;;;;6.57;2.58;;;21.00;48.20;;;;;;5033312;28;20214;-53
2022/11/11 05:29:58;;;;;;;10.00;3.13;;;21.00;48.30;;;;;;5033497;28;20231;-47
2022/11/11 05:32:31;;;;;;;6.47;2.30;;;21.00;48.30;;;;;;5033605;28;20192;-57
2022/11/11 05:35:02;;;;;;;9.88;3.00;;;21.00;48.30;;;;;;5033192;28;20200;-55
2022/11/11 05:37:32;;;;;;;8.40;3.17;;;21.00;48.20;;;;;;5032063;28;20199;-50
2022/11/11 05:40:03;;;;;;;12.98;4.22;;;21.00;48.20;;;;;;5033119;28;20223;-56
2022/11/11 05:42:36;;;;;;;10.70;4.50;;;20.90;48.20;;;;;;5033316;28;20192;-56
2022/11/11 05:45:08;;;;;;;8.57;3.50;;;20.90;48.20;;;;;;5032803;28;20224;-53
2022/11/11 05:47:40;;;;;;;11.60;4.35;;;21.00;48.20;;;;;;5032076;28;20199;-54
2022/11/11 05:50:12;;;;;;;8.23;3.97;;;21.00;48.20;;;;;;5031482;28;20220;-50
2022/11/11 05:52:48;;;;;;;10.40;4.18;;;21.00;48.20;;;;;;5031942;28;20215;-57
2022/11/11 05:55:22;;;;;;;9.90;4.03;;;21.00;48.20;;;;;;5013283;28;20207;-53
2022/11/11 05:57:52;;;;;;;10.77;4.15;;;21.00;48.20;;;;;;5013184;28;20204;-58
2022/11/11 06:00:23;;;;;;;7.47;3.30;;;21.00;48.20;;;;;;5013461;28;20228;-59
2022/11/11 06:02:56;;;;;;;7.65;3.38;;;20.90;48.20;;;;;;5013740;28;20197;-52
2022/11/11 06:05:26;;;;;;;8.90;3.60;;;20.90;48.20;;;;;;5013904;28;20250;-50
2022/11/11 06:07:57;;;;;;;9.93;3.33;;;20.90;48.20;;;;;;5022439;28;20215;-50
2022/11/11 06:10:33;;;;;;;7.95;3.67;;;20.90;48.20;;;;;;5032822;28;20223;-52
2022/11/11 06:13:08;;;;;;;7.82;3.45;;;20.90;48.10;;;;;;5033167;28;20199;-53
2022/11/11 06:15:40;;;;;;;8.85;3.45;;;20.90;48.10;;;;;;5033052;28;20217;-57
2022/11/11 06:18:12;;;;;;;9.85;3.60;;;20.90;48.10;;;;;;5032682;28;20547;-53
2022/11/11 06:20:43;;;;;;;9.45;3.50;;;20.90;48.10;;;;;;5032719;28;20216;-49
2022/11/11 06:23:14;;;;;;;8.85;3.20;;;20.90;48.10;;;;;;5032388;28;20699;-58
2022/11/11 06:28:31;;;;;;;9.50;3.63;;;20.90;48.10;;;;;;5033190;28;20195;-53
2022/11/11 06:31:02;;;;;;;5.88;3.08;;;20.90;48.00;;;;;;5032838;28;20598;-55
2022/11/11 06:33:35;;;;;;;8.45;3.50;;;20.90;48.00;;;;;;5032827;28;20451;-56
2022/11/11 06:36:06;;;;;;;6.78;3.40;;;20.90;48.10;;;;;;5032707;28;20196;-51
2022/11/11 06:38:37;;;;;;;8.77;3.90;;;20.90;48.20;;;;;;5032463;28;20200;-51
2022/11/11 06:41:08;;;;;;;9.15;3.85;;;20.90;48.20;;;;;;5032008;28;20216;-52
2022/11/11 06:43:40;;;;;;;7.03;3.22;;;20.80;48.10;;;;;;5032074;28;20192;-55
2022/11/11 06:46:15;;;;;;;6.15;3.47;;;20.80;48.10;;;;;;5032135;28;20259;-52
2022/11/11 06:48:48;;;;;;;10.63;4.82;;;20.80;48.10;;;;;;5032026;28;20548;-53
2022/11/11 06:51:19;;;;;;;8.82;4.05;;;20.80;48.10;;;;;;5031703;28;20204;-50
2022/11/11 06:53:49;;;;;;;10.23;3.78;;;20.80;48.10;;;;;;5031598;28;20200;-47
2022/11/11 06:56:21;;;;;;;9.48;4.35;;;20.80;48.10;;;;;;5031788;28;20208;-50
2022/11/11 06:58:51;;;;;;;6.97;3.22;;;20.80;48.10;;;;;;5032242;28;20208;-48
2022/11/11 07:01:22;;;;;;;7.60;3.75;;;20.80;48.10;;;;;;5031442;28;20184;-51
2022/11/11 07:03:55;;;;;;;9.52;4.10;;;20.80;48.10;;;;;;5032273;28;20202;-48
2022/11/11 07:06:25;;;;;;;8.60;3.85;;;20.80;48.10;;;;;;5034004;28;20216;-57
2022/11/11 07:08:57;;;;;;;6.82;3.50;;;20.80;48.10;;;;;;5031281;28;20200;-57
2022/11/11 07:11:27;;;;;;;8.07;3.75;;;20.80;48.10;;;;;;5031348;28;20200;-52
2022/11/11 07:13:58;;;;;;;6.82;3.45;;;20.80;48.10;;;;;;5031029;28;20599;-49
2022/11/11 07:16:29;;;;;;;6.80;3.60;;;20.70;48.10;;;;;;5031782;28;20203;-53
2022/11/11 07:19:01;;;;;;;10.75;3.88;;;20.70;48.10;;;;;;5031209;28;20188;-56
2022/11/11 07:21:32;;;;;;;7.80;3.50;;;20.70;48.20;;;;;;5031380;28;20200;-49
2022/11/11 07:24:03;;;;;;;8.77;3.80;;;20.70;48.20;;;;;;5031330;28;20670;-54
2022/11/11 07:26:33;;;;;;;8.00;3.28;;;20.70;48.70;;;;;;5031312;28;20232;-56
2022/11/11 07:29:04;;;;;;;7.68;3.92;;;20.70;48.10;;;;;;5031056;28;20542;-51
2022/11/11 07:31:35;;;;;;;8.68;3.70;;;20.70;48.20;;;;;;5031384;28;20204;-50
2022/11/11 07:34:07;;;;;;;6.40;3.70;;;20.70;48.20;;;;;;5031366;28;20548;-48
2022/11/11 07:36:38;;;;;;;8.10;3.33;;;20.70;48.20;;;;;;5031516;28;20200;-48
2022/11/11 07:39:09;;;;;;;6.38;2.80;;;20.70;48.20;;;;;;5031322;28;20562;-53
2022/11/11 07:41:40;;;;;;;5.40;2.88;;;20.60;48.10;;;;;;5031469;28;20676;-54
2022/11/11 07:44:10;;;;;;;4.85;3.03;;;20.60;48.10;;;;;;5031462;28;20397;-50
2022/11/11 07:46:41;;;;;;;6.22;3.20;;;20.60;48.20;;;;;;5031908;28;20228;-53
2022/11/11 07:49:14;;;;;;;8.57;3.47;;;20.60;48.70;;;;;;5031744;28;20227;-53
2022/11/11 07:51:44;;;;;;;6.65;3.35;;;20.60;48.30;;;;;;5031259;28;20295;-55
2022/11/11 07:54:16;;;;;;;5.93;3.17;;;20.60;48.30;;;;;;5031091;28;20299;-56
2022/11/11 07:56:48;;;;;;;7.10;3.03;;;20.60;48.30;;;;;;5031605;28;20200;-51
2022/11/11 07:59:18;;;;;;;6.50;3.30;;;20.60;48.30;;;;;;5031324;28;20235;-52
2022/11/11 08:01:49;;;;;;;5.57;2.88;;;20.60;48.40;;;;;;5031496;28;20222;-48
2022/11/11 08:04:22;;;;;;;5.93;2.83;;;20.60;48.40;;;;;;5010638;28;20200;-51
2022/11/11 08:06:52;;;;;;;6.03;2.90;;;20.50;48.40;;;;;;5027566;28;20707;-51
2022/11/11 08:09:23;;;;;;;6.68;2.97;;;20.50;48.30;;;;;;5029408;28;20247;-54
2022/11/11 08:14:41;;;;;;;6.57;2.83;;;20.50;48.40;;;;;;5030413;28;20195;-58
2022/11/11 08:17:12;;;;;;;6.45;3.05;;;20.50;48.40;;;;;;5030004;28;20429;-57
2022/11/11 08:19:44;;;;;;;6.00;2.90;;;20.50;48.50;;;;;;5030849;28;20208;-56
2022/11/11 08:22:15;;;;;;;6.45;2.78;;;20.50;48.60;;;;;;5010368;28;20288;-59
2022/11/11 08:24:46;;;;;;;4.50;2.47;;;20.50;48.60;;;;;;5010943;28;20435;-60
2022/11/11 08:27:19;;;;;;;7.10;3.13;;;20.50;48.60;;;;;;5010586;28;20193;-55
2022/11/11 08:29:50;;;;;;;5.32;2.75;;;20.50;48.60;;;;;;5010895;28;20217;-59
2022/11/11 08:32:21;;;;;;;4.43;2.40;;;20.50;48.50;;;;;;5010817;28;20197;-58
2022/11/11 08:34:53;;;;;;;6.45;2.67;;;20.40;48.50;;;;;;5010632;28;20212;-59
2022/11/11 08:37:24;;;;;;;6.00;2.92;;;20.40;48.50;;;;;;5021218;28;20200;-55
2022/11/11 08:39:55;;;;;;;5.10;2.45;;;20.40;48.50;;;;;;5028737;28;20212;-53
2022/11/11 08:42:26;;;;;;;6.50;2.90;;;20.50;48.60;;;;;;5010789;28;20197;-55
2022/11/11 08:44:57;;;;;;;4.60;2.35;;;20.40;49.10;;;;;;5025669;28;20266;-54
2022/11/11 08:47:27;;;;;;;6.15;2.47;;;20.40;48.50;;;;;;5010165;28;20205;-59
2022/11/11 08:50:00;;;;;;;4.13;2.53;;;20.40;48.50;;;;;;5011051;28;20689;-58
2022/11/11 08:52:31;;;;;;;3.33;2.30;;;20.40;49.20;;;;;;5029891;28;20196;-54
2022/11/11 08:55:02;;;;;;;3.38;2.35;;;20.40;48.60;;;;;;5030555;28;20562;-54
2022/11/11 08:57:33;;;;;;;4.03;2.13;;;20.40;48.70;;;;;;5030804;28;20235;-53
2022/11/11 09:00:04;;;;;;;5.60;2.63;;;20.40;48.70;;;;;;5028255;28;20239;-56
2022/11/11 09:02:34;;;;;;;4.15;2.50;;;20.30;48.70;;;;;;5030659;28;20207;-54
2022/11/11 09:05:08;;;;;;;5.10;2.38;;;20.30;48.70;;;;;;5031988;28;20199;-60
2022/11/11 09:07:38;;;;;;;5.38;2.35;;;20.30;48.70;;;;;;5029491;28;20562;-58
2022/11/11 09:10:10;;;;;;;3.78;2.08;;;20.30;48.70;;;;;;5029467;28;20224;-53
2022/11/11 09:12:41;;;;;;;4.25;2.10;;;20.30;48.70;;;;;;5030142;28;20196;-53
2022/11/11 09:15:12;;;;;;;4.78;2.20;;;20.30;48.70;;;;;;5029835;28;20548;-53
2022/11/11 09:17:47;;;;;;;4.50;2.10;;;20.30;48.70;;;;;;5029833;28;20560;-49
2022/11/11 09:20:20;;;;;;;3.95;2.30;;;20.30;48.70;;;;;;5030160;28;20204;-53
2022/11/11 09:22:52;;;;;;;4.65;2.28;;;20.30;48.70;;;;;;5030032;28;20208;-52
2022/11/11 09:25:24;;;;;;;4.30;2.15;;;20.30;48.70;;;;;;5032840;28;20200;-59
2022/11/11 09:27:58;;;;;;;3.50;2.10;;;20.30;48.70;;;;;;5033558;28;20200;-58
2022/11/11 09:30:29;;;;;;;4.10;2.30;;;20.30;48.70;;;;;;5033372;28;20215;-54
2022/11/11 09:33:05;;;;;;;3.05;1.80;;;20.20;48.70;;;;;;5033570;28;20211;-51
2022/11/11 09:35:38;;;;;;;2.85;2.05;;;20.20;48.70;;;;;;5032642;28;20200;-51
2022/11/11 09:38:08;;;;;;;4.45;2.50;;;20.20;48.70;;;;;;5033310;28;20555;-58
2022/11/11 09:41:01;;;;;;;4.95;2.47;;;20.20;48.70;;;;;;5033368;28;20653;-58
2022/11/11 09:43:41;;;;;;;3.92;2.13;;;20.20;48.80;;;;;;5033197;28;20196;-53
2022/11/11 09:46:32;;;;;;;4.10;2.28;;;20.20;48.80;;;;;;5032664;28;20220;-53
2022/11/11 09:49:43;;;;;;;4.22;2.05;;;20.20;48.80;;;;;;5032765;28;20192;-52
2022/11/11 09:52:20;;;;;;;4.05;2.10;;;20.20;48.80;;;;;;5008046;28;20196;-51
2022/11/11 09:54:55;;;;;;;3.70;1.92;;;20.20;48.80;;;;;;5032627;28;20637;-54
2022/11/11 09:57:36;;;;;;;3.53;2.10;;;20.20;48.80;;;;;;5032110;28;20200;-53
2022/11/11 10:00:09;;;;;;;4.15;2.17;;;20.20;48.90;;;;;;5031771;28;20216;-55
2022/11/11 10:02:45;;;;;;;3.97;2.05;;;20.20;48.80;;;;;;5033086;28;20207;-54
2022/11/11 10:05:21;;;;;;;3.70;2.00;;;20.10;48.80;;;;;;5032317;28;20195;-55
2022/11/11 10:07:57;;;;;;;2.92;1.60;;;20.10;48.80;;;;;;5032579;28;20200;-54
2022/11/11 10:10:40;;;;;;;3.67;1.80;;;20.10;48.80;;;;;;5032691;28;20239;-56
2022/11/11 10:13:16;;;;;;;3.33;1.60;;;20.10;48.80;;;;;;5032607;28;20274;-51
2022/11/11 10:15:58;;;;;;;4.90;2.40;;;20.10;48.80;;;;;;5032487;28;20196;-50
2022/11/11 10:18:44;;;;;;;3.50;1.85;;;20.10;48.80;;;;;;5032251;28;20199;-53
2022/11/11 10:21:21;;;;;;;2.53;1.73;;;20.10;48.80;;;;;;5032356;28;20224;-52
2022/11/11 10:23:57;;;;;;;3.63;1.90;;;20.10;48.90;;;;;;5032649;28;20242;-51
2022/11/11 10:26:37;;;;;;;2.90;1.70;;;20.10;48.90;;;;;;5032518;28;20252;-51
2022/11/11 10:29:14;;;;;;;3.40;1.83;;;20.10;48.80;;;;;;5030961;28;20243;-52
2022/11/11 10:31:47;;;;;;;3.92;1.75;;;20.10;48.90;;;;;;5031895;28;20365;-51
2022/11/11 10:34:21;;;;;;;2.22;1.42;;;20.10;48.90;;;;;;5031414;28;20196;-50
2022/11/11 10:36:55;;;;;;;2.95;1.92;;;20.10;48.90;;;;;;5032098;28;20207;-51
2022/11/11 10:39:35;;;;;;;2.97;1.55;;;20.00;48.80;;;;;;5017140;28;20211;-49
2022/11/11 10:42:06;;;;;;;3.20;1.70;;;20.00;49.50;;;;;;5030973;28;20204;-50
2022/11/11 10:44:37;;;;;;;2.75;1.83;;;20.00;48.90;;;;;;5031267;28;20199;-55
2022/11/11 10:47:13;;;;;;;3.38;1.80;;;20.00;48.90;;;;;;5032236;28;20315;-48
2022/11/11 10:49:50;;;;;;;2.78;1.63;;;20.00;48.90;;;;;;5032117;28;20226;-52
2022/11/11 10:52:25;;;;;;;2.53;1.77;;;20.00;49.00;;;;;;5032301;28;20214;-54
2022/11/11 10:55:03;;;;;;;2.95;1.65;;;20.00;49.00;;;;;;5031893;28;20198;-49
2022/11/11 10:57:39;;;;;;;1.98;1.48;;;20.00;49.00;;;;;;5032510;28;20200;-52
2022/11/11 11:00:11;;;;;;;3.30;1.98;;;20.00;49.00;;;;;;5032290;28;20714;-47
2022/11/11 11:02:51;;;;;;;3.13;1.88;;;20.00;49.00;;;;;;5033201;28;20204;-51
2022/11/11 11:05:28;;;;;;;2.00;1.48;;;20.00;49.00;;;;;;5032348;28;20192;-50
2022/11/11 11:08:01;;;;;;;3.00;1.60;;;20.00;49.00;;;;;;5031752;28;20223;-50
2022/11/11 11:10:40;;;;;;;2.72;1.38;;;20.00;49.00;;;;;;5031359;28;20227;-52
2022/11/11 11:13:16;;;;;;;3.17;1.70;;;20.00;49.00;;;;;;5031584;28;20664;-47
2022/11/11 11:15:52;;;;;;;1.98;1.55;;;19.90;49.00;;;;;;5034097;28;20697;-56
2022/11/11 11:18:23;;;;;;;2.88;1.70;;;19.90;49.00;;;;;;5031263;28;20192;-53
2022/11/11 11:21:04;;;;;;;2.53;1.40;;;19.90;49.00;;;;;;5031678;28;20220;-52
2022/11/11 11:23:42;;;;;;;3.53;1.60;;;19.90;49.00;;;;;;5023491;28;20200;-57
2022/11/11 11:26:16;;;;;;;3.45;1.58;;;19.90;49.10;;;;;;5031438;28;20234;-54
2022/11/11 11:28:56;;;;;;;2.80;1.42;;;19.90;49.10;;;;;;5031848;28;20204;-53
2022/11/11 11:31:38;;;;;;;2.65;1.50;;;19.90;49.50;;;;;;5031685;28;20199;-50
2022/11/11 11:34:09;;;;;;;2.60;1.60;;;19.90;49.20;;;;;;5031981;28;20196;-52
2022/11/11 11:36:40;;;;;;;2.70;1.50;;;19.90;49.20;;;;;;5031945;28;20207;-54
2022/11/11 11:39:11;;;;;;;2.40;1.65;;;19.90;49.20;;;;;;5031602;28;20625;-52
2022/11/11 11:41:50;;;;;;;2.85;1.38;;;19.90;49.20;;;;;;5031457;28;20211;-52
2022/11/11 11:44:31;;;;;;;2.25;1.50;;;19.90;49.20;;;;;;5031153;28;20281;-50
2022/11/11 11:47:17;;;;;;;1.88;1.23;;;19.90;49.20;;;;;;5030702;28;20236;-54
2022/11/11 11:50:23;;;;;;;2.72;1.40;;;19.80;49.20;;;;;;5031092;28;20227;-51
2022/11/11 11:53:03;;;;;;;2.42;1.50;;;19.80;49.30;;;;;;5031115;28;20199;-53
2022/11/11 11:55:37;;;;;;;2.90;1.40;;;19.80;49.20;;;;;;5031219;28;20707;-54
2022/11/11 11:58:32;;;;;;;2.05;1.30;;;19.90;49.30;;;;;;5030437;28;20211;-55
2022/11/11 12:01:08;;;;;;;2.83;1.45;;;19.90;49.40;;;;;;5030519;28;20287;-55
2022/11/11 12:04:11;;;;;;;1.83;1.20;;;19.80;49.30;;;;;;5031449;28;20203;-55
2022/11/11 12:06:52;;;;;;;2.33;1.50;;;19.80;49.40;;;;;;5031251;28;20219;-53
2022/11/11 12:09:33;;;;;;;1.92;1.33;;;19.80;49.40;;;;;;5031508;28;20227;-58
2022/11/11 12:12:12;;;;;;;1.75;1.20;;;19.90;49.40;;;;;;5031236;28;20208;-56
2022/11/11 12:14:58;;;;;;;1.73;1.13;;;19.80;49.40;;;;;;5030767;28;20208;-57
2022/11/11 12:17:42;;;;;;;2.88;1.45;;;19.80;49.40;;;;;;5031174;28;20210;-57
2022/11/11 12:20:19;;;;;;;3.15;1.33;;;19.80;49.30;;;;;;5031331;28;20223;-58
2022/11/11 12:23:05;;;;;;;3.03;1.50;;;19.80;49.40;;;;;;5031247;28;20203;-58
2022/11/11 12:25:57;;;;;;;2.95;1.50;;;19.80;49.30;;;;;;5031037;28;20203;-51
2022/11/11 12:28:42;;;;;;;1.50;1.10;;;19.80;49.40;;;;;;5030956;28;20704;-56
2022/11/11 12:31:27;;;;;;;1.30;1.20;;;19.80;49.40;;;;;;5030285;28;20220;-55
2022/11/11 12:34:06;;;;;;;2.22;1.15;;;19.80;49.50;;;;;;5031261;28;20207;-52
2022/11/11 12:36:42;;;;;;;2.53;1.20;;;19.80;49.50;;;;;;5030808;28;20361;-55
2022/11/11 12:39:30;;;;;;;1.77;1.20;;;19.80;49.50;;;;;;5030402;28;20230;-57
2022/11/11 12:42:13;;;;;;;2.15;1.17;;;19.80;49.50;;;;;;5030670;28;20683;-48
2022/11/11 12:44:56;;;;;;;1.10;0.95;;;19.80;49.60;;;;;;5028666;28;20232;-53
2022/11/11 12:47:41;;;;;;;2.55;1.50;;;19.70;49.50;;;;;;5030179;28;20219;-54
2022/11/11 12:50:21;;;;;;;1.92;1.10;;;19.70;49.50;;;;;;5031063;28;20224;-51
2022/11/11 12:53:11;;;;;;;2.45;1.20;;;19.70;49.50;;;;;;5030892;28;20685;-51
2022/11/11 12:55:53;;;;;;;1.88;1.10;;;19.70;49.50;;;;;;5031140;28;20196;-51
2022/11/11 12:58:35;;;;;;;1.63;1.17;;;19.70;49.40;;;;;;5032843;28;20200;-58
2022/11/11 13:01:21;;;;;;;2.17;1.20;;;19.70;49.50;;;;;;5034615;28;20691;-59
2022/11/11 13:04:06;;;;;;;2.65;1.10;;;19.70;49.50;;;;;;5034355;28;20200;-58
2022/11/11 13:06:54;;;;;;;1.90;1.10;;;19.70;49.60;;;;;;5036281;28;20479;-56
2022/11/11 13:09:49;;;;;;;1.38;1.00;;;19.70;49.60;;;;;;5014089;28;20224;-55
2022/11/11 13:12:25;;;;;;;2.17;1.10;;;19.70;49.60;;;;;;5013443;28;20197;-52
2022/11/11 13:15:05;;;;;;;1.85;1.10;;;19.70;49.50;;;;;;5032848;28;20207;-58
2022/11/11 13:17:36;;;;;;;1.58;1.00;;;19.70;49.70;;;;;;5034475;28;20295;-54
2022/11/11 13:20:17;;;;;;;2.33;1.33;;;19.70;49.60;;;;;;5033743;28;20212;-55
2022/11/11 13:22:51;;;;;;;1.80;1.40;;;19.70;49.70;;;;;;5033870;28;20196;-55
2022/11/11 13:25:26;;;;;;;2.00;0.98;;;19.60;49.60;;;;;;5033771;28;20587;-58
2022/11/11 13:28:00;;;;;;;1.88;1.10;;;19.60;49.50;;;;;;5033530;28;20227;-52
2022/11/11 13:30:53;;;;;;;1.63;1.08;;;19.60;49.50;;;;;;5033469;28;20223;-59
2022/11/11 13:33:26;;;;;;;2.60;1.30;;;19.60;49.60;;;;;;5033594;28;20192;-59
2022/11/11 13:36:01;;;;;;;2.00;1.10;;;19.60;49.60;;;;;;5034279;28;20199;-56
2022/11/11 13:38:36;;;;;;;2.65;1.30;;;19.60;49.60;;;;;;5034059;28;20572;-59
2022/11/11 13:41:09;;;;;;;2.03;1.10;;;19.60;49.60;;;;;;5034001;28;20212;-60
2022/11/11 13:43:44;;;;;;;1.30;0.95;;;19.60;49.60;;;;;;5033837;28;20211;-54
2022/11/11 13:46:33;;;;;;;2.30;1.20;;;19.60;49.70;;;;;;5033593;28;20199;-57
2022/11/11 13:49:06;;;;;;;2.22;0.90;;;19.60;49.70;;;;;;5033722;28;20207;-54
2022/11/11 13:51:41;;;;;;;1.80;1.10;;;19.60;49.70;;;;;;5034028;28;20219;-58
2022/11/11 13:54:26;;;;;;;1.92;1.02;;;19.60;49.70;;;;;;5033775;28;20209;-58
2022/11/11 13:57:03;;;;;;;1.70;1.05;;;19.60;49.70;;;;;;5033248;28;20659;-60
2022/11/11 13:59:36;;;;;;;1.35;0.90;;;19.60;49.60;;;;;;5033079;28;20224;-56
2022/11/11 14:02:34;;;;;;;1.45;1.00;;;19.60;49.70;;;;;;5033078;28;20250;-60
2022/11/11 14:05:26;;;;;;;1.35;1.05;;;19.60;49.70;;;;;;4999972;28;20199;-56
2022/11/11 14:07:59;;;;;;;1.52;1.10;;;19.50;49.70;;;;;;5033462;28;20471;-59
2022/11/11 14:10:54;;;;;;;1.45;1.05;;;19.60;49.70;;;;;;5031993;28;20224;-60
2022/11/11 14:13:42;;;;;;;1.23;0.95;;;19.50;49.70;;;;;;5033379;28;20679;-58
2022/11/11 14:16:14;;;;;;;1.60;1.08;;;19.60;49.70;;;;;;5032960;28;20196;-55
2022/11/11 14:18:46;;;;;;;1.38;0.93;;;19.50;49.70;;;;;;5032777;28;20576;-58
2022/11/11 14:21:44;;;;;;;1.65;1.00;;;19.50;49.70;;;;;;5032931;28;20656;-58
2022/11/11 14:24:27;;;;;;;1.75;1.10;;;19.50;49.80;;;;;;5032427;28;20444;-56
2022/11/11 14:27:02;;;;;;;1.98;1.00;;;19.50;49.80;;;;;;5032376;28;20200;-57
2022/11/11 14:29:35;;;;;;;1.80;1.25;;;19.50;49.80;;;;;;5033056;28;20220;-54
2022/11/11 14:32:40;;;;;;;1.65;1.00;;;19.50;49.80;;;;;;5032960;28;20606;-51
2022/11/11 14:35:27;;;;;;;1.35;0.90;;;19.50;49.80;;;;;;5032731;28;20199;-53
2022/11/11 14:38:29;;;;;;;1.00;0.80;;;19.50;49.80;;;;;;5032585;28;20208;-55
2022/11/11 14:41:39;;;;;;;1.50;1.00;;;19.50;49.80;;;;;;5032392;28;20713;-52
2022/11/11 14:44:44;;;;;;;1.75;0.90;;;19.50;49.80;;;;;;5032409;28;20200;-52